Time;durP1;ratioP1;P1;durP2;ratioP2;P2;SDS_P1;SDS_P2;PMS_P1;PMS_P2;Temp;Humidity;BMP_temperature;BMP_pressure;BME280_temperature;BME280_humidity;BME280_pressure;Samples;Min_cycle;Max_cycle;Signal;HPM_P1;HPM_P2
2023/09/01 00:01:14;;;;;;;6.57;2.33;;;;;;;13.55;100.00;97089.56;4984879;28;20038;-61
2023/09/01 00:04:03;;;;;;;7.18;3.03;;;;;;;13.59;100.00;97093.34;4973709;28;20057;-61
2023/09/01 00:06:30;;;;;;;6.32;2.90;;;;;;;13.51;100.00;97097.47;4975907;28;20063;-61
2023/09/01 00:08:57;;;;;;;6.53;2.00;;;;;;;13.56;100.00;97089.28;4998784;28;20039;-61
2023/09/01 00:11:23;;;;;;;6.60;2.40;;;;;;;13.45;100.00;97107.50;4988849;28;20065;-61
2023/09/01 00:13:50;;;;;;;5.05;2.30;;;;;;;13.47;100.00;97101.81;4988224;28;20046;-61
2023/09/01 00:16:17;;;;;;;4.70;2.35;;;;;;;13.48;100.00;97096.13;4997941;28;20047;-61
2023/09/01 00:18:43;;;;;;;4.05;1.90;;;;;;;13.46;100.00;97090.13;4987862;28;20619;-61
2023/09/01 00:21:10;;;;;;;6.22;2.05;;;;;;;13.51;100.00;97081.97;4976920;28;20043;-61
2023/09/01 00:23:36;;;;;;;6.20;2.03;;;;;;;13.53;100.00;97082.50;4991966;28;20065;-61
2023/09/01 00:26:03;;;;;;;6.93;2.22;;;;;;;13.58;100.00;97092.56;4981285;28;20055;-61
2023/09/01 00:28:30;;;;;;;4.60;1.88;;;;;;;13.57;100.00;97079.22;5000719;28;20398;-61
2023/09/01 00:30:59;;;;;;;5.22;1.95;;;;;;;13.63;100.00;97086.25;4976256;28;20045;-62
2023/09/01 00:33:30;;;;;;;6.95;2.55;;;;;;;13.37;100.00;97091.75;4987939;28;20039;-62
2023/09/01 00:35:59;;;;;;;5.72;2.30;;;;;;;13.40;100.00;97097.47;4965980;28;20429;-61
2023/09/01 00:38:26;;;;;;;5.63;2.58;;;;;;;13.43;100.00;97111.59;4975132;28;20031;-61
2023/09/01 00:40:53;;;;;;;5.75;2.05;;;;;;;13.33;100.00;97102.38;4989813;28;20043;-61
2023/09/01 00:43:20;;;;;;;5.53;2.17;;;;;;;13.35;100.00;97111.06;4988430;28;20045;-61
2023/09/01 00:45:47;;;;;;;4.15;2.53;;;;;;;13.36;100.00;97099.13;4965591;28;20046;-61
2023/09/01 00:48:14;;;;;;;4.20;2.10;;;;;;;13.39;100.00;97095.03;4990640;28;20038;-61
2023/09/01 00:50:43;;;;;;;4.25;2.28;;;;;;;13.34;100.00;97106.72;4954185;28;20043;-61
2023/09/01 00:53:10;;;;;;;5.22;2.08;;;;;;;13.30;100.00;97108.38;4954950;28;20065;-61
2023/09/01 00:55:37;;;;;;;4.68;2.70;;;;;;;13.31;100.00;97123.63;4995494;28;20055;-61
2023/09/01 00:58:04;;;;;;;6.85;2.90;;;;;;;13.30;100.00;97113.03;4980182;28;20097;-61
2023/09/01 01:00:34;;;;;;;4.18;2.40;;;;;;;13.35;100.00;97105.63;4965555;28;20045;-61
2023/09/01 01:03:04;;;;;;;4.65;2.22;;;;;;;13.38;100.00;97110.53;4984051;28;20065;-61
2023/09/01 01:05:59;;;;;;;4.82;2.35;;;;;;;13.38;100.00;97096.94;4967283;28;20055;-61
2023/09/01 01:08:45;;;;;;;6.10;2.00;;;;;;;13.51;100.00;97092.84;4979702;28;20089;-61
2023/09/01 01:11:38;;;;;;;8.50;3.20;;;;;;;13.61;100.00;97088.44;4974762;28;20543;-61
2023/09/01 01:14:13;;;;;;;6.28;2.97;;;;;;;13.81;100.00;97067.69;4972009;28;20050;-61
2023/09/01 01:16:40;;;;;;;5.07;1.75;;;;;;;13.95;100.00;97060.53;4968592;28;20054;-61
2023/09/01 01:19:45;;;;;;;3.30;1.60;;;;;;;14.27;100.00;97061.13;4973139;28;20414;-61
2023/09/01 01:22:12;;;;;;;4.53;1.63;;;;;;;14.41;100.00;97062.09;4982060;28;20050;-60
2023/09/01 01:24:39;;;;;;;3.97;1.45;;;;;;;14.44;100.00;97058.81;4964083;28;20122;-61
2023/09/01 01:27:06;;;;;;;3.00;2.13;;;;;;;14.50;100.00;97054.13;4971169;28;20045;-61
2023/09/01 01:29:32;;;;;;;4.22;1.90;;;;;;;14.47;100.00;97046.53;4989378;28;20117;-60
2023/09/01 01:31:59;;;;;;;2.67;1.20;;;;;;;14.45;100.00;97040.56;4979245;28;20039;-61
2023/09/01 01:34:35;;;;;;;5.65;1.20;;;;;;;14.38;100.00;97050.97;4951200;28;20039;-60
2023/09/01 01:37:13;;;;;;;4.28;1.40;;;;;;;14.44;100.00;97049.81;4968672;28;20046;-60
2023/09/01 01:39:42;;;;;;;2.72;1.40;;;;;;;14.47;100.00;97049.25;4963883;28;20045;-61
2023/09/01 01:42:13;;;;;;;2.78;1.30;;;;;;;14.51;100.00;97050.31;4972871;28;20060;-60
2023/09/01 01:44:45;;;;;;;4.00;1.48;;;;;;;14.57;100.00;97054.59;4995316;28;20100;-60
2023/09/01 01:47:11;;;;;;;6.43;1.45;;;;;;;14.62;100.00;97047.47;4974821;28;20042;-59
2023/09/01 01:49:38;;;;;;;3.63;1.30;;;;;;;14.68;100.00;97044.44;4955260;28;20035;-60
2023/09/01 01:52:05;;;;;;;4.50;1.30;;;;;;;14.69;100.00;97054.25;4967292;28;20047;-60
2023/09/01 01:54:32;;;;;;;3.05;1.25;;;;;;;14.73;100.00;97050.94;4964541;28;20105;-60
2023/09/01 01:56:59;;;;;;;6.90;1.60;;;;;;;14.66;100.00;97045.81;4974165;28;20047;-61
2023/09/01 01:59:26;;;;;;;5.18;1.90;;;;;;;14.64;100.00;97048.03;4963447;28;20498;-60
2023/09/01 02:01:52;;;;;;;2.85;1.30;;;;;;;14.50;100.00;97053.31;4966447;28;20045;-61
2023/09/01 02:04:19;;;;;;;3.72;1.50;;;;;;;14.51;100.00;97052.22;4938516;28;20047;-60
2023/09/01 02:06:46;;;;;;;2.67;1.38;;;;;;;14.55;100.00;97039.66;4943701;28;20054;-60
2023/09/01 02:09:14;;;;;;;3.22;1.30;;;;;;;14.61;100.00;97045.88;4951160;28;20038;-60
2023/09/01 02:11:41;;;;;;;3.40;1.50;;;;;;;14.53;100.00;97050.03;4964711;28;20125;-61
2023/09/01 02:14:07;;;;;;;3.65;1.20;;;;;;;14.60;100.00;97055.16;4967128;28;20668;-60
2023/09/01 02:16:34;;;;;;;2.88;1.15;;;;;;;14.67;100.00;97050.19;4963468;28;20039;-60
2023/09/01 02:19:00;;;;;;;4.13;1.40;;;;;;;14.60;100.00;97060.59;5003836;28;20035;-61
2023/09/01 02:21:27;;;;;;;6.13;1.73;;;;;;;14.56;100.00;97054.91;4960131;28;20434;-60
2023/09/01 02:23:54;;;;;;;2.95;1.25;;;;;;;14.63;100.00;97062.75;4964026;28;20088;-60
2023/09/01 02:26:22;;;;;;;3.30;1.35;;;;;;;14.61;100.00;97059.50;4965914;28;20046;-60
2023/09/01 02:28:50;;;;;;;5.70;1.77;;;;;;;14.52;100.00;97060.09;4963172;28;20034;-61
2023/09/01 02:31:17;;;;;;;4.10;1.77;;;;;;;14.50;100.00;97062.31;4956803;28;20144;-61
2023/09/01 02:33:44;;;;;;;3.20;1.30;;;;;;;14.52;100.00;97056.59;4990228;28;20125;-61
2023/09/01 02:36:34;;;;;;;4.35;1.40;;;;;;;14.43;100.00;97048.19;4964751;28;20130;-62
2023/09/01 02:39:04;;;;;;;3.38;1.60;;;;;;;14.52;100.00;97048.41;5006569;28;20657;-60
2023/09/01 02:41:31;;;;;;;3.78;1.33;;;;;;;14.64;100.00;97057.03;4960257;28;20112;-60
2023/09/01 02:43:58;;;;;;;4.25;1.40;;;;;;;14.62;100.00;97053.75;4967856;28;20043;-60
2023/09/01 02:46:24;;;;;;;4.68;1.30;;;;;;;14.59;100.00;97064.44;4965113;28;20055;-60
2023/09/01 02:48:51;;;;;;;3.88;1.25;;;;;;;14.73;100.00;97050.94;4991429;28;20556;-60
2023/09/01 02:51:18;;;;;;;2.67;1.35;;;;;;;14.77;100.00;97055.56;4966130;28;20049;-60
2023/09/01 02:53:44;;;;;;;2.90;1.40;;;;;;;14.83;100.00;97067.22;4997096;28;20051;-60
2023/09/01 02:56:11;;;;;;;6.15;1.23;;;;;;;14.88;100.00;97064.44;4962839;28;20147;-60
2023/09/01 02:58:38;;;;;;;3.00;1.10;;;;;;;14.82;100.00;97071.84;4955718;28;20527;-60
2023/09/01 03:01:09;;;;;;;4.43;1.48;;;;;;;14.88;100.00;97074.53;4964504;28;20035;-59
2023/09/01 03:03:38;;;;;;;3.55;1.45;;;;;;;14.83;100.00;97078.94;4960766;28;20058;-60
2023/09/01 03:06:08;;;;;;;2.28;1.33;;;;;;;14.97;100.00;97075.56;4964759;28;20460;-60
2023/09/01 03:08:35;;;;;;;4.57;1.27;;;;;;;14.93;100.00;97074.50;4961872;28;20035;-60
2023/09/01 03:11:03;;;;;;;3.50;1.30;;;;;;;14.99;100.00;97084.25;4970009;28;20078;-59
2023/09/01 03:13:30;;;;;;;4.55;1.67;;;;;;;14.85;100.00;97075.91;4968631;28;20039;-61
2023/09/01 03:15:57;;;;;;;2.92;1.23;;;;;;;14.92;100.00;97073.69;4969628;28;20053;-59
2023/09/01 03:18:24;;;;;;;3.00;1.10;;;;;;;14.90;100.00;97075.88;4962025;28;20039;-60
2023/09/01 03:20:55;;;;;;;2.97;1.08;;;;;;;14.89;100.00;97074.25;4969879;28;20135;-60
2023/09/01 03:23:22;;;;;;;2.63;1.10;;;;;;;14.87;100.00;97072.91;4953847;28;20047;-59
2023/09/01 03:25:56;;;;;;;3.70;1.75;;;;;;;14.81;100.00;97072.13;4982794;28;20041;-60
2023/09/01 03:28:24;;;;;;;3.78;1.20;;;;;;;14.85;100.00;97066.94;4961361;28;20046;-60
2023/09/01 03:30:51;;;;;;;2.85;1.63;;;;;;;14.87;100.00;97064.72;4966881;28;20043;-59
2023/09/01 03:33:19;;;;;;;2.95;1.08;;;;;;;14.88;100.00;97069.06;4962249;28;20134;-59
2023/09/01 03:35:46;;;;;;;3.00;1.20;;;;;;;14.94;100.00;97078.84;4965244;28;20110;-60
2023/09/01 03:38:13;;;;;;;3.00;1.02;;;;;;;14.88;100.00;97067.16;4966548;28;20047;-60
2023/09/01 03:40:41;;;;;;;3.03;1.33;;;;;;;14.95;100.00;97078.56;4958561;28;20039;-60
2023/09/01 03:43:07;;;;;;;3.92;1.50;;;;;;;14.83;100.00;97076.19;4967322;28;20119;-59
2023/09/01 03:45:34;;;;;;;4.18;1.60;;;;;;;14.86;100.00;97079.47;4982792;28;20119;-61
2023/09/01 03:48:02;;;;;;;4.32;1.33;;;;;;;14.83;100.00;97076.19;4996737;28;20044;-61
2023/09/01 03:50:30;;;;;;;2.92;1.10;;;;;;;14.86;100.00;97079.47;4971755;28;20063;-59
2023/09/01 03:52:57;;;;;;;3.45;1.13;;;;;;;14.92;100.00;97078.31;4969585;28;20067;-60
2023/09/01 03:55:23;;;;;;;3.80;1.30;;;;;;;14.88;100.00;97067.16;4975792;28;20520;-60
2023/09/01 03:57:50;;;;;;;5.15;1.65;;;;;;;14.92;100.00;97067.41;4980679;28;20043;-60
2023/09/01 04:00:17;;;;;;;3.40;1.38;;;;;;;14.75;100.00;97071.38;4967886;28;20031;-60
2023/09/01 04:02:44;;;;;;;2.80;1.15;;;;;;;14.65;100.00;97076.88;4988600;28;20051;-59
2023/09/01 04:05:11;;;;;;;2.30;1.38;;;;;;;14.70;100.00;97074.94;4976368;28;20800;-59
2023/09/01 04:07:37;;;;;;;3.00;1.20;;;;;;;14.72;100.00;97076.56;4987710;28;20035;-60
2023/09/01 04:10:04;;;;;;;3.67;1.45;;;;;;;14.69;100.00;97080.69;4959960;28;20043;-60
2023/09/01 04:12:34;;;;;;;2.60;1.40;;;;;;;14.73;100.00;97087.19;4972802;28;20171;-60
2023/09/01 04:15:00;;;;;;;2.40;1.35;;;;;;;14.64;100.00;97087.00;4962355;28;20039;-60
2023/09/01 04:17:27;;;;;;;3.85;1.50;;;;;;;14.54;100.00;97084.34;4984093;28;20043;-61
2023/09/01 04:19:54;;;;;;;4.43;1.40;;;;;;;14.46;100.00;97083.03;4965250;28;20039;-60
2023/09/01 04:22:21;;;;;;;5.38;1.70;;;;;;;14.52;100.00;97083.81;4968046;28;20038;-60
2023/09/01 04:24:49;;;;;;;3.42;1.60;;;;;;;14.51;100.00;97079.44;4971044;28;20093;-59
2023/09/01 04:27:15;;;;;;;3.90;1.95;;;;;;;14.51;100.00;97083.00;4971566;28;20219;-59
2023/09/01 04:29:42;;;;;;;3.35;1.10;;;;;;;14.66;100.00;97084.78;4963098;28;20035;-59
2023/09/01 04:32:22;;;;;;;5.85;1.17;;;;;;;14.74;100.00;97085.28;4982801;28;20496;-60
2023/09/01 04:34:49;;;;;;;3.15;1.10;;;;;;;14.75;100.00;97076.81;4963679;28;20687;-60
2023/09/01 04:37:16;;;;;;;3.92;1.20;;;;;;;14.80;100.00;97078.69;4995346;28;20252;-60
2023/09/01 04:39:42;;;;;;;1.67;1.00;;;;;;;14.88;100.00;97074.53;4966084;28;20103;-61
2023/09/01 04:42:09;;;;;;;4.13;1.38;;;;;;;14.99;100.00;97081.50;4986922;28;20054;-60
2023/09/01 04:44:36;;;;;;;3.35;1.10;;;;;;;15.05;100.00;97074.94;4986413;28;20041;-60
2023/09/01 04:47:03;;;;;;;3.63;1.30;;;;;;;14.96;100.00;97079.34;4989248;28;20048;-60
2023/09/01 04:49:31;;;;;;;3.50;1.10;;;;;;;14.89;100.00;97079.69;4962839;28;20126;-60
2023/09/01 04:51:57;;;;;;;3.05;1.13;;;;;;;14.98;100.00;97081.78;4973931;28;20050;-60
2023/09/01 04:54:25;;;;;;;2.72;1.20;;;;;;;14.97;100.00;97072.00;4964001;28;20062;-60
2023/09/01 04:56:52;;;;;;;2.90;1.20;;;;;;;14.98;100.00;97076.34;4985896;28;20051;-60
2023/09/01 04:59:19;;;;;;;1.85;1.15;;;;;;;14.98;100.00;97070.91;4971939;28;20093;-60
2023/09/01 05:01:46;;;;;;;2.30;1.08;;;;;;;14.98;100.00;97079.91;4981847;28;20039;-61
2023/09/01 05:04:15;;;;;;;4.07;1.13;;;;;;;15.02;100.00;97094.56;4959916;28;20505;-60
2023/09/01 05:06:41;;;;;;;3.30;1.23;;;;;;;15.03;100.00;97098.09;4989248;28;20069;-61
2023/09/01 05:09:08;;;;;;;3.45;1.50;;;;;;;14.96;100.00;97093.00;4974620;28;20141;-60
2023/09/01 05:11:35;;;;;;;2.78;1.45;;;;;;;14.97;100.00;97091.09;4970591;28;20080;-59
2023/09/01 05:14:01;;;;;;;2.72;1.30;;;;;;;15.03;100.00;97095.38;4961011;28;20062;-60
2023/09/01 05:16:28;;;;;;;2.22;1.00;;;;;;;15.12;100.00;97092.84;4970171;28;20039;-59
2023/09/01 05:18:55;;;;;;;4.05;1.25;;;;;;;15.05;100.00;97101.38;4969603;28;20051;-59
2023/09/01 05:21:21;;;;;;;2.85;1.15;;;;;;;15.22;100.00;97095.44;4968363;28;20394;-62
2023/09/01 05:23:49;;;;;;;3.60;1.20;;;;;;;15.10;100.00;97108.69;4966383;28;20133;-60
2023/09/01 05:26:16;;;;;;;6.40;1.10;;;;;;;14.93;100.00;97115.38;4971240;28;20038;-59
2023/09/01 05:28:42;;;;;;;4.00;1.38;;;;;;;14.84;100.00;97120.63;4973789;28;20045;-60
2023/09/01 05:31:09;;;;;;;2.50;1.08;;;;;;;14.75;100.00;97122.31;4966278;28;20055;-60
2023/09/01 05:33:41;;;;;;;3.80;1.35;;;;;;;14.73;100.00;97132.69;4956166;28;20066;-60
2023/09/01 05:36:07;;;;;;;3.30;1.33;;;;;;;14.63;100.00;97137.13;4964014;28;20069;-60
2023/09/01 05:38:34;;;;;;;3.63;1.40;;;;;;;14.81;100.00;97130.19;4961538;28;20055;-60
2023/09/01 05:41:02;;;;;;;3.92;1.58;;;;;;;14.72;100.00;97140.06;4961699;28;20051;-60
2023/09/01 05:43:29;;;;;;;5.32;1.50;;;;;;;14.56;100.00;97159.25;4970024;28;20047;-61
2023/09/01 05:45:55;;;;;;;3.72;1.50;;;;;;;14.63;100.00;97156.19;4961775;28;20042;-60
2023/09/01 05:48:25;;;;;;;4.05;1.50;;;;;;;14.70;100.00;97153.97;4971451;28;20522;-60
2023/09/01 05:50:52;;;;;;;4.22;1.50;;;;;;;14.70;100.00;97158.59;4961232;28;20046;-59
2023/09/01 05:53:19;;;;;;;3.40;1.45;;;;;;;14.69;100.00;97171.41;4972318;28;20055;-59
2023/09/01 05:55:46;;;;;;;4.15;1.10;;;;;;;14.77;100.00;97174.66;4963681;28;20043;-60
2023/09/01 05:58:13;;;;;;;2.55;1.10;;;;;;;14.76;100.00;97181.19;4962083;28;20465;-60
2023/09/01 06:00:40;;;;;;;3.38;1.25;;;;;;;14.74;100.00;97189.63;4965552;28;20629;-61
2023/09/01 06:03:07;;;;;;;4.18;1.60;;;;;;;14.69;100.00;97195.13;4997904;28;20047;-59
2023/09/01 06:05:33;;;;;;;2.58;1.48;;;;;;;14.76;100.00;97203.84;4954030;28;20042;-60
2023/09/01 06:08:00;;;;;;;3.08;1.42;;;;;;;14.62;100.00;97225.41;4964258;28;20042;-60
2023/09/01 06:10:27;;;;;;;3.22;1.25;;;;;;;14.49;100.00;97251.34;4963023;28;20093;-60
2023/09/01 06:12:54;;;;;;;5.72;1.73;;;;;;;14.49;100.00;97261.47;4997340;28;20126;-61
2023/09/01 06:15:21;;;;;;;3.85;1.55;;;;;;;14.54;100.00;97264.97;4966959;28;20057;-61
2023/09/01 06:17:47;;;;;;;2.67;1.30;;;;;;;14.65;100.00;97251.28;4967654;28;20648;-61
2023/09/01 06:20:14;;;;;;;3.05;1.83;;;;;;;14.68;100.00;97240.63;4962721;28;20047;-61
2023/09/01 06:22:45;;;;;;;3.58;1.70;;;;;;;14.73;100.00;97247.13;4990090;28;20045;-61
2023/09/01 06:25:12;;;;;;;3.95;1.30;;;;;;;14.78;100.00;97247.94;4989130;28;20054;-61
2023/09/01 06:27:38;;;;;;;2.85;1.33;;;;;;;14.68;100.00;97281.50;4998933;28;20042;-61
2023/09/01 06:30:06;;;;;;;6.55;1.40;;;;;;;14.83;100.00;97258.03;4973903;28;20077;-61
2023/09/01 06:32:33;;;;;;;3.92;1.38;;;;;;;14.88;100.00;97268.06;4983228;28;20104;-61
2023/09/01 06:35:00;;;;;;;2.80;1.33;;;;;;;14.87;100.00;97270.00;4963135;28;20143;-62
2023/09/01 06:37:27;;;;;;;3.60;1.42;;;;;;;14.97;100.00;97254.66;4979997;28;20034;-61
2023/09/01 06:39:53;;;;;;;6.53;1.45;;;;;;;14.96;100.00;97256.56;4971461;28;20039;-61
2023/09/01 06:42:20;;;;;;;3.30;1.40;;;;;;;15.00;100.00;97233.09;4962616;28;20055;-61
2023/09/01 06:44:47;;;;;;;4.15;1.67;;;;;;;15.03;100.00;97237.16;4963129;28;20051;-61
2023/09/01 06:47:14;;;;;;;3.10;1.45;;;;;;;15.22;100.00;97250.91;4987454;28;20191;-61
2023/09/01 06:49:40;;;;;;;6.22;2.10;;;;;;;15.23;100.00;97229.91;4979562;28;20038;-61
2023/09/01 06:52:07;;;;;;;5.03;1.73;;;;;;;15.30;100.00;97222.22;4971440;28;20798;-61
2023/09/01 06:54:34;;;;;;;5.25;1.85;;;;;;;15.29;100.00;97234.25;4960818;28;20047;-61
2023/09/01 06:57:00;;;;;;;7.15;2.03;;;;;;;15.29;100.00;97226.84;4969778;28;20043;-61
2023/09/01 06:59:27;;;;;;;2.83;1.33;;;;;;;15.26;100.00;97242.97;4972665;28;20108;-61
2023/09/01 07:01:53;;;;;;;3.58;1.45;;;;;;;15.22;100.00;97248.19;4966762;28;20057;-61
2023/09/01 07:04:20;;;;;;;2.45;1.27;;;;;;;15.22;100.00;97248.19;4969174;28;20050;-61
2023/09/01 07:06:47;;;;;;;3.15;1.20;;;;;;;15.24;100.00;97242.44;5027899;28;20055;-62
2023/09/01 07:09:13;;;;;;;3.60;1.20;;;;;;;15.27;100.00;97239.16;4966887;28;20584;-61
2023/09/01 07:11:40;;;;;;;2.08;0.93;;;;;;;15.17;100.00;97254.50;4965979;28;20044;-62
2023/09/01 07:14:06;;;;;;;3.17;1.10;;;;;;;15.24;100.00;97251.44;4985127;28;20044;-61
2023/09/01 07:16:33;;;;;;;2.00;0.98;;;;;;;15.28;100.00;97259.88;4959380;28;20088;-61
2023/09/01 07:19:00;;;;;;;1.95;1.13;;;;;;;15.40;100.00;97234.97;4979653;28;20031;-61
2023/09/01 07:21:26;;;;;;;2.13;1.23;;;;;;;15.50;100.00;97231.28;4991188;28;20089;-62
2023/09/01 07:23:53;;;;;;;3.30;1.10;;;;;;;15.54;100.00;97243.25;4969541;28;20129;-62
2023/09/01 07:26:20;;;;;;;3.67;1.02;;;;;;;15.71;100.00;97221.00;4995045;28;20091;-62
2023/09/01 07:28:47;;;;;;;2.35;1.13;;;;;;;15.73;100.00;97214.16;4975837;28;20100;-61
2023/09/01 07:31:13;;;;;;;1.95;0.88;;;;;;;15.81;100.00;97231.00;4973485;28;20046;-61
2023/09/01 07:33:43;;;;;;;1.73;1.10;;;;;;;15.90;100.00;97240.19;4985175;28;20074;-61
2023/09/01 07:36:11;;;;;;;1.80;1.00;;;;;;;16.03;100.00;97235.16;4964278;28;20047;-61
2023/09/01 07:38:38;;;;;;;2.28;1.17;;;;;;;16.10;100.00;97241.06;4972516;28;20045;-61
2023/09/01 07:41:04;;;;;;;3.05;1.02;;;;;;;16.18;100.00;97232.22;4971525;28;20089;-61
2023/09/01 07:43:31;;;;;;;2.10;1.15;;;;;;;16.37;100.00;97235.00;4990874;28;20087;-61
2023/09/01 07:45:58;;;;;;;1.67;0.93;;;;;;;16.50;100.00;97214.34;4994224;28;20048;-60
2023/09/01 07:48:24;;;;;;;0.93;0.50;;;;;;;16.48;100.00;97208.34;4963780;28;20094;-61
2023/09/01 07:50:52;;;;;;;0.82;0.50;;;;;;;16.50;100.00;97206.13;4966187;28;20035;-61
2023/09/01 07:53:19;;;;;;;1.30;0.60;;;;;;;16.61;100.00;97203.25;4978238;28;20042;-61
2023/09/01 07:55:45;;;;;;;1.65;0.82;;;;;;;16.76;100.00;97208.50;4966318;28;20126;-61
2023/09/01 07:58:12;;;;;;;2.35;0.70;;;;;;;16.67;100.00;97209.44;4966804;28;20047;-62
2023/09/01 08:00:40;;;;;;;1.98;0.70;;;;;;;16.75;100.00;97215.06;4969640;28;20114;-62
2023/09/01 08:03:10;;;;;;;2.33;0.80;;;;;;;16.85;100.00;97221.50;4989398;28;20059;-61
2023/09/01 08:05:38;;;;;;;2.30;0.67;;;;;;;17.09;100.00;97209.66;4964640;28;20126;-62
2023/09/01 08:08:06;;;;;;;0.70;0.50;;;;;;;17.24;100.00;97216.78;4973451;28;20046;-62
2023/09/01 08:10:33;;;;;;;2.17;1.00;;;;;;;17.31;100.00;97210.97;4971158;28;20118;-61
2023/09/01 08:13:00;;;;;;;1.02;0.63;;;;;;;17.32;100.00;97216.09;5006092;28;20035;-61
2023/09/01 08:15:26;;;;;;;2.05;0.70;;;;;;;17.55;100.00;97208.06;4967610;28;20049;-62
2023/09/01 08:17:54;;;;;;;5.30;0.77;;;;;;;17.70;100.00;97214.34;4968085;28;20066;-61
2023/09/01 08:20:22;;;;;;;1.20;0.60;;;;;;;17.77;100.00;97217.50;5020647;28;20034;-62
2023/09/01 08:22:49;;;;;;;1.67;0.70;;;;;;;17.73;100.00;97211.81;4981706;28;20085;-62
2023/09/01 08:25:15;;;;;;;1.20;0.50;;;;;;;17.89;100.00;97219.75;4965028;28;21743;-61
2023/09/01 08:27:42;;;;;;;1.10;0.60;;;;;;;17.99;100.00;97221.47;4976435;28;20050;-61
2023/09/01 08:30:10;;;;;;;2.30;0.70;;;;;;;17.85;100.00;97219.56;4954373;28;20046;-61
2023/09/01 08:32:43;;;;;;;1.25;0.55;;;;;;;17.94;100.00;97219.63;4935826;28;21181;-61
2023/09/01 08:35:11;;;;;;;1.38;0.63;;;;;;;17.79;100.00;97223.47;4997530;28;20092;-61
2023/09/01 08:37:38;;;;;;;0.88;0.45;;;;;;;17.87;100.00;97227.47;4966250;28;20067;-61
2023/09/01 08:40:07;;;;;;;0.70;0.30;;;;;;;17.72;100.00;97225.84;4964127;28;20035;-61
2023/09/01 08:42:35;;;;;;;2.83;0.60;;;;;;;17.66;100.00;97230.59;4985730;28;20039;-61
2023/09/01 08:45:03;;;;;;;0.98;0.52;;;;;;;17.48;100.00;97227.63;4964702;28;20061;-62
2023/09/01 08:47:36;;;;;;;2.30;0.65;;;;;;;17.30;100.00;97242.97;4968049;28;20048;-62
2023/09/01 08:50:03;;;;;;;1.38;0.70;;;;;;;17.16;100.00;97249.22;5000558;28;20130;-64
2023/09/01 08:52:33;;;;;;;1.10;0.65;;;;;;;17.07;100.00;97261.94;4990108;28;20052;-63
2023/09/01 08:54:59;;;;;;;1.25;0.60;;;;;;;17.21;100.00;97259.25;4961875;28;20042;-62
2023/09/01 08:57:26;;;;;;;1.77;0.70;;;;;;;17.22;100.00;97271.84;4972647;28;20708;-63
2023/09/01 08:59:53;;;;;;;0.65;0.40;;;;;;;17.44;100.00;97236.72;4977150;28;20124;-63
2023/09/01 09:02:20;;;;;;;2.78;0.70;;;;;;;17.43;100.00;97235.91;5001916;28;20050;-63
2023/09/01 09:04:47;;;;;;;1.23;0.40;;;;;;;17.49;100.00;97239.34;4988946;28;20085;-63
2023/09/01 09:07:15;;;;;;;1.05;0.30;;;;;;;17.59;100.00;97233.72;4960465;28;20053;-63
2023/09/01 09:09:58;;;;;;;0.65;0.40;;;;;;;17.86;100.00;97236.78;4996387;28;20072;-64
2023/09/01 09:12:36;;;;;;;0.22;0.20;;;;;;;17.87;100.00;97230.19;4988967;28;20066;-65
2023/09/01 09:15:03;;;;;;;0.65;0.20;;;;;;;18.04;100.00;97224.94;4977730;28;20055;-64
2023/09/01 09:17:43;;;;;;;0.57;0.30;;;;;;;17.89;100.00;97219.75;4971225;28;20418;-66
2023/09/01 09:20:11;;;;;;;0.50;0.30;;;;;;;17.88;100.00;97218.91;4974986;28;20417;-63
2023/09/01 09:22:56;;;;;;;0.88;0.32;;;;;;;18.05;100.00;97229.28;5003186;28;20524;-63
2023/09/01 09:25:24;;;;;;;0.60;0.30;;;;;;;18.03;100.00;97226.03;4967113;28;20544;-62
2023/09/01 09:27:51;;;;;;;1.13;0.45;;;;;;;17.98;100.00;97228.88;4978044;28;20064;-64
2023/09/01 09:30:17;;;;;;;1.67;0.65;;;;;;;18.00;100.00;97234.06;4966830;28;20043;-63
2023/09/01 09:32:44;;;;;;;0.57;0.32;;;;;;;17.90;100.00;97232.31;4994461;28;20047;-62
2023/09/01 09:35:16;;;;;;;1.25;0.30;;;;;;;17.84;100.00;97231.59;4963330;28;20070;-62
2023/09/01 09:37:42;;;;;;;0.30;0.22;;;;;;;17.83;100.00;97226.44;4961499;28;20062;-62
2023/09/01 09:40:15;;;;;;;2.75;0.57;;;;;;;17.77;100.00;97226.53;4996496;28;20115;-62
2023/09/01 09:42:43;;;;;;;1.05;0.40;;;;;;;17.66;100.00;97242.34;5002483;28;20542;-62
2023/09/01 09:45:20;;;;;;;0.63;0.25;;;;;;;17.66;100.00;97236.84;4973502;28;20062;-62
2023/09/01 09:47:48;;;;;;;0.90;0.45;;;;;;;17.86;100.00;97242.25;4973294;28;20054;-62
2023/09/01 09:50:17;;;;;;;1.73;0.55;;;;;;;17.98;100.00;97244.50;4968169;28;20043;-62
2023/09/01 09:52:49;;;;;;;1.10;0.50;;;;;;;18.00;100.00;97242.25;4990924;28;20156;-62
2023/09/01 09:55:24;;;;;;;1.23;0.43;;;;;;;18.09;100.00;97248.69;4969379;28;20054;-62
2023/09/01 09:57:51;;;;;;;0.60;0.30;;;;;;;18.14;100.00;97243.09;4977554;28;20089;-62
2023/09/01 10:00:21;;;;;;;1.05;0.60;;;;;;;18.20;100.00;97243.81;4967371;28;20077;-62
2023/09/01 10:02:55;;;;;;;5.00;0.40;;;;;;;18.27;100.00;97251.63;4984989;28;20043;-62
2023/09/01 10:05:23;;;;;;;0.80;0.40;;;;;;;18.25;100.00;97251.94;4965350;28;20416;-61
2023/09/01 10:07:51;;;;;;;1.30;0.50;;;;;;;18.37;100.00;97242.38;4971774;28;20076;-62
2023/09/01 10:10:18;;;;;;;1.00;0.60;;;;;;;18.41;100.00;97244.22;4965733;28;20039;-62
2023/09/01 10:12:44;;;;;;;1.17;0.40;;;;;;;18.46;100.00;97246.84;4983363;28;20506;-62
2023/09/01 10:15:14;;;;;;;1.42;0.60;;;;;;;18.55;100.00;97235.16;4972152;28;20054;-62
2023/09/01 10:17:43;;;;;;;1.00;0.50;;;;;;;18.62;100.00;97237.47;4959919;28;20134;-62
2023/09/01 10:20:10;;;;;;;1.77;0.60;;;;;;;18.74;100.00;97234.19;4963648;28;20314;-62
2023/09/01 10:22:40;;;;;;;1.88;0.70;;;;;;;18.73;100.00;97230.66;4973338;28;20120;-62
2023/09/01 10:25:18;;;;;;;1.73;0.60;;;;;;;18.89;100.00;97233.00;4967949;28;20055;-62
2023/09/01 10:28:18;;;;;;;2.85;0.60;;;;;;;18.92;100.00;97221.44;4962062;28;20074;-62
2023/09/01 10:30:46;;;;;;;1.23;0.60;;;;;;;18.95;100.00;97231.78;4961293;28;20054;-62
2023/09/01 10:33:24;;;;;;;1.55;0.55;;;;;;;19.02;100.00;97226.66;4978222;28;20286;-62
2023/09/01 10:35:57;;;;;;;2.30;0.88;;;;;;;19.18;99.69;97226.31;4980772;28;20564;-63
2023/09/01 10:38:37;;;;;;;1.70;0.75;;;;;;;19.31;99.50;97225.44;4963100;28;20042;-62
2023/09/01 10:41:04;;;;;;;1.90;0.70;;;;;;;19.26;98.97;97224.75;4956379;28;20055;-61
2023/09/01 10:43:34;;;;;;;2.35;1.00;;;;;;;19.35;98.33;97229.19;4990975;28;20078;-61
2023/09/01 10:46:16;;;;;;;1.77;0.80;;;;;;;19.44;97.88;97231.19;4960032;28;20043;-61
2023/09/01 10:48:49;;;;;;;3.08;0.85;;;;;;;19.52;96.30;97230.41;4962478;28;20047;-62
2023/09/01 10:51:34;;;;;;;2.50;0.80;;;;;;;19.64;96.41;97224.31;4965003;28;20043;-61
2023/09/01 10:54:23;;;;;;;2.63;0.80;;;;;;;19.73;95.94;97229.88;4975239;28;20046;-61
2023/09/01 10:56:57;;;;;;;1.17;0.75;;;;;;;19.76;96.96;97230.03;4968959;28;20572;-62
2023/09/01 10:59:42;;;;;;;1.60;0.90;;;;;;;19.97;95.49;97226.75;4968892;28;20034;-61
2023/09/01 11:02:28;;;;;;;2.33;0.70;;;;;;;19.95;92.47;97219.94;4984104;28;20093;-62
2023/09/01 11:04:55;;;;;;;2.35;0.98;;;;;;;20.04;94.12;97231.00;4982320;28;20049;-62
2023/09/01 11:07:21;;;;;;;2.10;1.00;;;;;;;20.16;93.07;97222.94;4964255;28;20054;-61
2023/09/01 11:09:49;;;;;;;2.65;0.90;;;;;;;20.26;93.99;97232.84;4972851;28;20130;-62
2023/09/01 11:12:17;;;;;;;1.50;0.68;;;;;;;20.32;92.86;97220.59;4981900;28;20047;-61
2023/09/01 11:14:57;;;;;;;2.70;0.80;;;;;;;20.39;91.96;97222.84;4970939;28;20411;-62
2023/09/01 11:17:44;;;;;;;2.05;1.08;;;;;;;20.53;91.06;97231.78;4961499;28;20050;-62
2023/09/01 11:20:14;;;;;;;2.25;0.70;;;;;;;20.58;91.16;97230.00;4943694;28;20051;-61
2023/09/01 11:22:42;;;;;;;3.67;0.80;;;;;;;20.58;91.14;97227.25;4959098;28;20042;-61
2023/09/01 11:25:11;;;;;;;3.42;0.77;;;;;;;20.51;88.89;97213.97;4971092;28;20058;-62
2023/09/01 11:27:42;;;;;;;3.72;0.90;;;;;;;20.63;88.70;97219.66;4959407;28;20043;-61
2023/09/01 11:30:09;;;;;;;2.95;1.38;;;;;;;20.81;87.63;97222.41;4965576;28;20061;-62
2023/09/01 11:32:35;;;;;;;1.80;0.70;;;;;;;21.00;87.91;97216.63;4974799;28;20035;-61
2023/09/01 11:35:03;;;;;;;2.70;0.85;;;;;;;21.11;87.68;97208.81;4964551;28;20079;-61